Saint-Pacome, Canada
Current Conditions -  °F | °C
As of 9:53 AM on Wednesday 22 Oct 2014 (Local Time) from KFVE Reporting Station
Scattered Clouds Scattered Clouds  
Wind Chill: 32°   Ceiling: Unl
Heat Index: 39°   Visibility: 10mi
Dew Point: 33°   Wind: 12mph
Humidity: 79%   Direction: 40°NE
Pressure: 30.41"   Gusts: NA
Location:  47.42°N, 69.95°W
Report Text: KFVE 221353Z AUTO 04010KT 10SM SCT007 04/01 A3041 RMK AO2 SLP305 T00390006
Loading
Personal Weather Stations






























Interactive Weather Map
Tropical Storm Tracking
New forecast layout! Learn more

10-Day Weather Forecast

Advertisements
Track Severe Weather on mobile